Decoded Metar for EPSY (SZYMANY in POLAND) (IATA:N/A) | Meteo·Mobile Aviation Weather
aviador You're here:

EPSY Decoded Metar

SZYMANY in POLAND
Report Time2019-07-19 18:30:00
UTC Time2019-07-19 19:02:15
Flight Rules vfr VFR
Wind070° at 01 kt
W.Decomp.*RWY 02: 0.7 kt HW 0.7 kt RCW
Visibility9999 m
Phenomena:N/A
Clouds:N/A
Expected CloudBase > 3,600 ft AGL from Temp-Dew spread
CeilingNone
Temp22°C (ISA +8)
Dew Point13°C (57% RH)
QNH1013 hPa
Density Alt1,588 ft
Elevation463 ft
Report Wrong Elevation
Raw Report
METAR EPSY 191830Z 07001KT CAVOK 22/13 Q1013=

Extra information for EPSY:More info

Airport Information Weather charts Add Link Nearby Venues Social comments